createdAt,value
2022-10-25T00:02:18.007Z,95.51
2022-10-25T00:04:46.735Z,95.31
2022-10-25T00:07:15.683Z,95.41
2022-10-25T00:09:45.449Z,95.48
2022-10-25T00:12:13.848Z,95.46
2022-10-25T00:14:42.217Z,95.33
2022-10-25T00:17:10.894Z,95.41
2022-10-25T00:19:39.349Z,95.63
2022-10-25T00:22:07.747Z,95.71
2022-10-25T00:24:36.034Z,95.68
2022-10-25T00:27:06.811Z,96.02
2022-10-25T00:29:35.350Z,96.24
2022-10-25T00:32:03.931Z,96.06
2022-10-25T00:34:32.413Z,96.30
2022-10-25T00:37:00.798Z,96.24
2022-10-25T00:39:29.263Z,96.39
2022-10-25T00:41:57.543Z,96.66
2022-10-25T00:44:51.625Z,96.67
2022-10-25T00:47:31.479Z,96.23
2022-10-25T00:50:05.033Z,96.19
2022-10-25T00:52:38.149Z,95.85
2022-10-25T00:55:08.730Z,95.74
2022-10-25T00:57:43.981Z,95.66
2022-10-25T01:00:15.203Z,95.52
2022-10-25T01:02:44.019Z,95.70
2022-10-25T01:05:12.640Z,95.31
2022-10-25T01:07:41.342Z,95.23
2022-10-25T01:10:11.457Z,95.47
2022-10-25T01:12:39.929Z,95.17
2022-10-25T01:15:10.063Z,95.20
2022-10-25T01:17:52.759Z,95.04
2022-10-25T01:20:59.030Z,95.41
2022-10-25T01:23:59.203Z,95.77
2022-10-25T01:27:28.383Z,95.74
2022-10-25T01:30:09.863Z,95.83
2022-10-25T01:32:49.242Z,95.72
2022-10-25T01:35:28.127Z,96.37
2022-10-25T01:38:27.941Z,97.42
2022-10-25T01:41:10.675Z,97.86
2022-10-25T01:43:47.648Z,98.21
2022-10-25T01:46:22.692Z,98.13
2022-10-25T01:49:00.649Z,97.92
2022-10-25T01:51:29.886Z,98.16
2022-10-25T01:53:58.748Z,98.04
2022-10-25T01:56:31.551Z,97.48
2022-10-25T01:59:24.040Z,97.69
2022-10-25T02:02:03.343Z,97.75
2022-10-25T02:04:47.636Z,97.58
2022-10-25T02:07:25.068Z,97.49
2022-10-25T02:12:49.701Z,97.46
2022-10-25T02:15:26.084Z,97.53
2022-10-25T02:18:00.321Z,97.56
2022-10-25T02:20:35.173Z,97.75
2022-10-25T02:23:06.796Z,97.54
2022-10-25T02:25:37.480Z,97.52
2022-10-25T02:28:08.418Z,97.64
2022-10-25T02:30:37.922Z,97.56
2022-10-25T02:33:06.533Z,97.20
2022-10-25T02:35:36.424Z,96.96
2022-10-25T02:38:05.282Z,96.47
2022-10-25T02:40:33.702Z,96.29
2022-10-25T02:43:02.027Z,96.31
2022-10-25T02:45:30.275Z,96.32
2022-10-25T02:47:58.583Z,96.33
2022-10-25T02:50:26.911Z,96.23
2022-10-25T02:52:56.615Z,96.02
2022-10-25T02:55:24.929Z,95.99
2022-10-25T02:57:53.173Z,95.45
2022-10-25T03:00:21.806Z,95.55
2022-10-25T03:02:50.304Z,95.21
2022-10-25T03:05:18.714Z,95.08
2022-10-25T03:07:46.990Z,95.50
2022-10-25T03:10:16.802Z,95.73
2022-10-25T03:12:45.394Z,95.89
2022-10-25T03:15:14.105Z,95.91
2022-10-25T03:17:44.462Z,96.03
2022-10-25T03:20:13.099Z,95.92
2022-10-25T03:22:41.354Z,96.07
2022-10-25T03:25:10.403Z,96.13
2022-10-25T03:27:40.045Z,95.97
2022-10-25T03:30:09.663Z,95.80
2022-10-25T03:32:38.547Z,95.94
2022-10-25T03:35:08.614Z,96.54
2022-10-25T03:37:36.975Z,97.29
2022-10-25T03:40:06.433Z,97.42
2022-10-25T03:42:34.709Z,97.33
2022-10-25T03:45:04.779Z,97.02
2022-10-25T03:47:33.038Z,96.85
2022-10-25T03:50:01.360Z,96.70
2022-10-25T03:52:29.612Z,96.39
2022-10-25T03:54:57.859Z,96.54
2022-10-25T03:57:26.186Z,96.50
2022-10-25T03:59:54.487Z,96.31
2022-10-25T04:02:25.250Z,96.43
2022-10-25T04:04:53.844Z,96.20
2022-10-25T04:07:22.368Z,95.85
2022-10-25T04:09:50.745Z,96.01
2022-10-25T04:12:19.033Z,95.96
2022-10-25T04:14:47.338Z,96.27
2022-10-25T04:17:15.622Z,96.24
2022-10-25T04:19:45.451Z,96.24
2022-10-25T04:22:14.492Z,96.45
2022-10-25T04:24:42.738Z,96.52
2022-10-25T04:27:11.034Z,96.54
2022-10-25T04:29:39.409Z,96.61
2022-10-25T04:32:08.214Z,96.37
2022-10-25T04:34:36.564Z,96.22
2022-10-25T04:37:06.358Z,96.59
2022-10-25T04:39:34.675Z,96.76
2022-10-25T04:42:03.049Z,96.79
2022-10-25T04:44:31.376Z,96.67
2022-10-25T04:46:59.554Z,96.56
2022-10-25T04:49:27.931Z,96.36
2022-10-25T04:51:56.196Z,96.56
2022-10-25T04:54:26.027Z,96.21
2022-10-25T04:56:54.352Z,96.19
2022-10-25T04:59:26.979Z,96.09
2022-10-25T05:01:55.364Z,96.08
2022-10-25T05:04:23.880Z,96.04
2022-10-25T05:06:52.236Z,95.78
2022-10-25T05:09:20.511Z,95.38
2022-10-25T05:11:50.203Z,95.41
2022-10-25T05:14:18.580Z,95.42
2022-10-25T05:16:46.871Z,95.49
2022-10-25T05:19:15.321Z,95.51
2022-10-25T05:21:43.722Z,95.44
2022-10-25T05:24:12.003Z,95.45
2022-10-25T05:26:40.272Z,95.63
2022-10-25T05:29:13.333Z,95.82
2022-10-25T05:31:42.870Z,95.55
2022-10-25T05:34:12.038Z,95.85
2022-10-25T05:36:40.404Z,95.88
2022-10-25T05:39:08.780Z,96.05
2022-10-25T05:41:37.434Z,95.95
2022-10-25T05:44:06.408Z,95.92
2022-10-25T05:46:36.217Z,95.83
2022-10-25T05:49:05.035Z,95.88
2022-10-25T05:51:36.305Z,95.86
2022-10-25T05:54:07.461Z,96.40
2022-10-25T05:56:36.684Z,96.37
2022-10-25T05:59:08.881Z,96.08
2022-10-25T06:01:41.969Z,96.23
2022-10-25T06:04:11.443Z,96.34
2022-10-25T06:06:41.185Z,96.53
2022-10-25T06:09:10.368Z,96.74
2022-10-25T06:11:39.926Z,96.73
2022-10-25T06:14:10.379Z,96.90
2022-10-25T06:16:40.108Z,97.23
2022-10-25T06:19:08.860Z,96.80
2022-10-25T06:21:37.692Z,96.68
2022-10-25T06:24:06.777Z,96.34
2022-10-25T06:26:35.082Z,96.41
2022-10-25T06:29:06.145Z,96.02
2022-10-25T06:31:35.097Z,95.97
2022-10-25T06:34:05.062Z,96.15
2022-10-25T06:36:33.450Z,96.03
2022-10-25T06:39:05.577Z,95.76
2022-10-25T06:41:36.997Z,95.63
2022-10-25T06:44:07.139Z,95.64
2022-10-25T06:47:11.804Z,95.78
2022-10-25T06:49:28.055Z,95.90
2022-10-25T06:51:56.337Z,96.43
2022-10-25T06:54:26.638Z,96.50
2022-10-25T06:56:55.090Z,96.50
2022-10-25T06:59:26.381Z,96.66
2022-10-25T07:01:55.350Z,96.78
2022-10-25T07:04:23.737Z,96.98
2022-10-25T07:06:55.341Z,96.44
2022-10-25T07:09:24.080Z,95.65
2022-10-25T07:11:52.444Z,95.05
2022-10-25T07:14:20.861Z,93.99
2022-10-25T07:16:49.219Z,92.83
2022-10-25T07:19:17.499Z,91.45
2022-10-25T07:21:46.382Z,90.27
2022-10-25T07:24:16.100Z,89.30
2022-10-25T07:26:45.057Z,87.84
2022-10-25T07:29:13.294Z,86.93
2022-10-25T07:31:44.247Z,85.90
2022-10-25T07:34:15.234Z,84.61
2022-10-25T07:36:43.570Z,83.92
2022-10-25T07:39:11.935Z,82.77
2022-10-25T07:41:41.626Z,81.90
2022-10-25T07:44:15.589Z,81.78
2022-10-25T07:46:45.138Z,81.92
2022-10-25T07:49:13.728Z,82.42
2022-10-25T07:51:42.045Z,82.90
2022-10-25T07:54:10.517Z,83.45
2022-10-25T07:56:38.722Z,84.00
2022-10-25T07:59:08.390Z,84.46
2022-10-25T08:01:37.682Z,85.21
2022-10-25T08:04:06.112Z,85.51
2022-10-25T08:06:36.164Z,86.29
2022-10-25T08:09:14.435Z,86.60
2022-10-25T08:11:48.805Z,86.98
2022-10-25T08:14:18.482Z,86.99
2022-10-25T08:16:46.861Z,86.25
2022-10-25T08:19:15.128Z,86.53
2022-10-25T08:21:43.577Z,86.60
2022-10-25T08:24:12.163Z,86.85
2022-10-25T08:26:40.486Z,87.67
2022-10-25T08:29:08.809Z,87.86
2022-10-25T08:31:38.544Z,88.33
2022-10-25T08:34:07.044Z,88.19
2022-10-25T08:36:35.457Z,88.47
2022-10-25T08:39:03.891Z,88.45
2022-10-25T08:41:44.386Z,88.82
2022-10-25T08:44:30.793Z,89.07
2022-10-25T08:47:05.920Z,89.68
2022-10-25T08:49:49.752Z,89.20
2022-10-25T08:52:22.858Z,88.66
2022-10-25T08:54:51.932Z,89.00
2022-10-25T08:57:25.439Z,88.71
2022-10-25T08:59:57.063Z,86.98
2022-10-25T09:02:37.513Z,87.11
2022-10-25T09:05:13.915Z,86.94
2022-10-25T09:08:08.512Z,86.36
2022-10-25T09:10:51.565Z,86.39
2022-10-25T09:16:16.620Z,86.70
2022-10-25T09:18:51.114Z,87.20
2022-10-25T09:21:24.238Z,87.33
2022-10-25T09:24:00.608Z,87.71
2022-10-25T09:26:47.524Z,88.32
2022-10-25T09:29:25.172Z,88.75
2022-10-25T09:31:58.842Z,88.95
2022-10-25T09:34:34.019Z,89.20
2022-10-25T09:37:15.114Z,89.15
2022-10-25T09:39:47.539Z,89.58
2022-10-25T09:42:21.946Z,89.53
2022-10-25T09:44:55.208Z,89.62
2022-10-25T09:47:42.912Z,89.80
2022-10-25T09:50:22.359Z,89.47
2022-10-25T09:53:09.926Z,89.83
2022-10-25T09:55:45.242Z,89.78
2022-10-25T09:58:21.148Z,89.94
2022-10-25T10:00:50.119Z,88.86
2022-10-25T10:03:21.787Z,88.49
2022-10-25T10:05:55.243Z,87.74
2022-10-25T10:08:23.891Z,87.30
2022-10-25T10:10:54.541Z,86.48
2022-10-25T10:13:29.842Z,85.52
2022-10-25T10:16:01.155Z,84.92
2022-10-25T10:18:31.931Z,84.57
2022-10-25T10:21:14.983Z,83.94
2022-10-25T10:23:52.602Z,83.75
2022-10-25T10:26:29.713Z,83.73
2022-10-25T10:29:08.901Z,83.42
2022-10-25T10:31:39.841Z,83.42
2022-10-25T10:34:14.048Z,83.72
2022-10-25T10:36:47.458Z,83.40
2022-10-25T10:39:22.678Z,83.21
2022-10-25T10:42:03.287Z,82.10
2022-10-25T10:44:34.698Z,81.68
2022-10-25T10:47:11.654Z,80.73
2022-10-25T10:49:43.264Z,80.36
2022-10-25T10:52:29.291Z,79.87
2022-10-25T10:54:58.261Z,78.62
2022-10-25T10:57:34.029Z,78.59
2022-10-25T11:00:02.955Z,78.45
2022-10-25T11:02:42.974Z,78.28
2022-10-25T11:05:27.562Z,76.68
2022-10-25T11:08:00.642Z,76.17
2022-10-25T11:10:33.891Z,76.10
2022-10-25T11:13:20.985Z,76.19
2022-10-25T11:16:21.026Z,76.54
2022-10-25T11:19:10.074Z,75.52
2022-10-25T11:22:12.898Z,75.87
2022-10-25T11:24:56.445Z,74.89
2022-10-25T11:27:38.771Z,75.66
2022-10-25T11:30:14.139Z,76.68
2022-10-25T11:33:17.602Z,76.33
2022-10-25T11:36:07.182Z,77.03
2022-10-25T11:38:48.919Z,77.19
2022-10-25T11:41:32.418Z,77.49
2022-10-25T11:44:47.679Z,77.79
2022-10-25T11:47:29.387Z,78.47
2022-10-25T11:50:11.952Z,77.67
2022-10-25T11:53:16.088Z,77.77
2022-10-25T11:55:49.725Z,78.47
2022-10-25T11:58:37.008Z,78.78
2022-10-25T12:01:21.069Z,78.20
2022-10-25T12:04:03.881Z,77.93
2022-10-25T12:06:41.960Z,77.92
2022-10-25T12:09:25.319Z,78.07
2022-10-25T12:11:59.779Z,77.22
2022-10-25T12:14:36.115Z,77.26
2022-10-25T12:17:09.058Z,76.20
2022-10-25T12:19:46.601Z,75.14
2022-10-25T12:22:19.854Z,75.26
2022-10-25T12:24:52.878Z,75.29
2022-10-25T12:27:23.042Z,75.55
2022-10-25T12:29:56.426Z,75.69
2022-10-25T12:32:33.479Z,75.49
2022-10-25T12:35:06.988Z,75.97
2022-10-25T12:37:40.266Z,75.22
2022-10-25T12:40:16.235Z,74.45
2022-10-25T12:42:48.351Z,74.87
2022-10-25T12:46:00.012Z,75.13
2022-10-25T12:48:58.862Z,75.25
2022-10-25T12:51:45.160Z,75.52
2022-10-25T12:54:54.817Z,74.42
2022-10-25T12:57:32.866Z,74.83
2022-10-25T13:00:12.590Z,75.31
2022-10-25T13:03:19.293Z,75.36
2022-10-25T13:06:27.798Z,75.81
2022-10-25T13:09:03.078Z,76.33
2022-10-25T13:11:38.306Z,75.93
2022-10-25T13:14:15.906Z,75.93
2022-10-25T13:16:47.058Z,75.60
2022-10-25T13:22:39.898Z,75.30
2022-10-25T13:25:19.704Z,75.07
2022-10-25T13:28:34.036Z,74.74
2022-10-25T13:31:58.572Z,73.58
2022-10-25T13:34:36.896Z,73.14
2022-10-25T13:37:42.392Z,73.09
2022-10-25T13:40:26.819Z,72.71
2022-10-25T13:43:04.836Z,72.66
2022-10-25T13:45:44.408Z,72.56
2022-10-25T13:48:29.897Z,71.40
2022-10-25T13:51:01.504Z,71.90
2022-10-25T13:53:38.085Z,71.17
2022-10-25T13:56:10.328Z,71.05
2022-10-25T13:58:53.365Z,70.89
2022-10-25T14:01:57.070Z,71.51
2022-10-25T14:04:44.700Z,70.75
2022-10-25T14:07:49.049Z,70.04
2022-10-25T14:10:29.240Z,69.76
2022-10-25T14:13:09.671Z,69.16
2022-10-25T14:15:46.746Z,69.39
2022-10-25T14:18:20.758Z,69.60
2022-10-25T14:20:55.485Z,69.28
2022-10-25T14:23:30.178Z,69.21
2022-10-25T14:26:01.220Z,68.82
2022-10-25T14:28:31.071Z,68.95
2022-10-25T14:31:01.535Z,68.84
2022-10-25T14:33:32.215Z,69.75
2022-10-25T14:36:09.955Z,70.00
2022-10-25T14:38:52.664Z,69.90
2022-10-25T14:41:26.525Z,70.29
2022-10-25T14:43:55.891Z,70.50
2022-10-25T14:46:25.563Z,70.39
2022-10-25T14:48:58.046Z,70.33
2022-10-25T14:51:30.321Z,70.17
2022-10-25T14:54:04.657Z,69.60
2022-10-25T14:56:37.120Z,69.91
2022-10-25T14:59:09.181Z,70.17
2022-10-25T15:01:38.662Z,70.23
2022-10-25T15:04:07.127Z,70.51
2022-10-25T15:06:35.580Z,71.01
2022-10-25T15:12:17.003Z,70.71
2022-10-25T15:14:47.434Z,70.42
2022-10-25T15:17:26.423Z,70.42
2022-10-25T15:20:07.603Z,69.96
2022-10-25T15:22:45.690Z,70.09
2022-10-25T15:25:32.859Z,69.83
2022-10-25T15:28:11.912Z,69.79
2022-10-25T15:30:43.506Z,69.67
2022-10-25T15:33:14.839Z,69.72
2022-10-25T15:35:52.200Z,69.79
2022-10-25T15:38:20.938Z,69.41
2022-10-25T15:40:50.966Z,69.16
2022-10-25T15:43:19.316Z,69.38
2022-10-25T15:45:47.740Z,69.66
2022-10-25T15:48:18.718Z,69.61
2022-10-25T15:50:52.666Z,69.52
2022-10-25T15:53:21.964Z,69.68
2022-10-25T15:55:52.911Z,69.85
2022-10-25T15:58:21.270Z,69.92
2022-10-25T16:00:52.091Z,70.36
2022-10-25T16:03:24.462Z,70.39
2022-10-25T16:05:53.751Z,70.63
2022-10-25T16:08:22.101Z,70.77
2022-10-25T16:10:52.138Z,70.87
2022-10-25T16:13:27.192Z,70.99
2022-10-25T16:15:55.680Z,70.72
2022-10-25T16:20:59.132Z,70.46
2022-10-25T16:23:28.273Z,70.36
2022-10-25T16:25:57.913Z,70.50
2022-10-25T16:30:59.549Z,70.55
2022-10-25T16:33:27.894Z,70.60
2022-10-25T16:35:56.118Z,70.66
2022-10-25T16:38:24.433Z,70.63
2022-10-25T16:40:52.875Z,70.69
2022-10-25T16:43:22.791Z,70.66
2022-10-25T16:45:51.164Z,70.67
2022-10-25T16:48:19.491Z,70.53
2022-10-25T16:50:47.847Z,70.58
2022-10-25T16:53:16.178Z,70.89
2022-10-25T16:55:44.573Z,70.80
2022-10-25T16:58:12.794Z,71.20
2022-10-25T17:00:42.521Z,71.18
2022-10-25T17:03:11.506Z,71.58
2022-10-25T17:05:40.284Z,71.68
2022-10-25T17:08:08.664Z,72.66
2022-10-25T17:10:42.458Z,73.19
2022-10-25T17:13:15.636Z,73.45
2022-10-25T17:15:45.424Z,73.03
2022-10-25T17:18:20.882Z,73.41
2022-10-25T17:20:50.226Z,73.80
2022-10-25T17:23:18.478Z,73.81
2022-10-25T17:25:46.759Z,73.77
2022-10-25T17:28:15.146Z,73.89
2022-10-25T17:30:44.932Z,74.17
2022-10-25T17:33:13.175Z,74.50
2022-10-25T17:35:42.748Z,75.22
2022-10-25T17:38:11.122Z,75.99
2022-10-25T17:40:39.795Z,76.27
2022-10-25T17:43:08.167Z,76.71
2022-10-25T17:45:36.483Z,76.91
2022-10-25T17:48:06.942Z,77.24
2022-10-25T17:50:40.835Z,77.50
2022-10-25T17:53:10.633Z,77.73
2022-10-25T17:55:41.160Z,78.81
2022-10-25T17:58:09.577Z,79.01
2022-10-25T18:00:37.817Z,79.93
2022-10-25T18:03:07.727Z,81.28
2022-10-25T18:05:36.231Z,82.70
2022-10-25T18:08:04.559Z,83.81
2022-10-25T18:10:34.760Z,84.50
2022-10-25T18:13:03.293Z,84.68
2022-10-25T18:15:33.334Z,84.54
2022-10-25T18:18:01.790Z,85.00
2022-10-25T18:20:31.424Z,85.10
2022-10-25T18:22:59.739Z,85.09
2022-10-25T18:25:27.967Z,84.81
2022-10-25T18:27:56.338Z,85.06
2022-10-25T18:30:24.670Z,84.74
2022-10-25T18:32:56.345Z,84.60
2022-10-25T18:35:24.599Z,84.39
2022-10-25T18:37:54.229Z,84.10
2022-10-25T18:40:22.936Z,83.79
2022-10-25T18:42:51.180Z,83.54
2022-10-25T18:45:19.476Z,83.61
2022-10-25T18:47:53.214Z,83.28
2022-10-25T18:50:21.789Z,83.10
2022-10-25T18:52:50.171Z,83.36
2022-10-25T18:55:21.492Z,83.46
2022-10-25T18:57:50.209Z,83.69
2022-10-25T19:00:19.544Z,83.55
2022-10-25T19:02:52.570Z,83.44
2022-10-25T19:05:21.011Z,83.75
2022-10-25T19:07:49.501Z,84.44
2022-10-25T19:10:19.662Z,84.16
2022-10-25T19:12:48.042Z,84.29
2022-10-25T19:15:16.436Z,84.83
2022-10-25T19:17:44.863Z,84.80
2022-10-25T19:20:13.398Z,85.34
2022-10-25T19:22:41.786Z,85.96
2022-10-25T19:25:10.833Z,86.01
2022-10-25T19:27:40.460Z,86.80
2022-10-25T19:30:10.464Z,87.97
2022-10-25T19:32:38.781Z,89.12
2022-10-25T19:35:07.709Z,89.26
2022-10-25T19:37:39.504Z,89.39
2022-10-25T19:40:10.629Z,89.12
2022-10-25T19:42:40.406Z,89.08
2022-10-25T19:45:09.340Z,88.71
2022-10-25T19:47:37.626Z,88.30
2022-10-25T19:50:06.696Z,88.29
2022-10-25T19:52:36.214Z,88.23
2022-10-25T19:55:06.176Z,88.82
2022-10-25T19:57:35.355Z,88.96
2022-10-25T20:00:09.850Z,88.74
2022-10-25T20:02:41.038Z,88.58
2022-10-25T20:07:39.916Z,88.44
2022-10-25T20:10:09.088Z,87.85
2022-10-25T20:12:37.339Z,88.50
2022-10-25T20:15:08.656Z,88.62
2022-10-25T20:17:37.201Z,89.25
2022-10-25T20:20:06.787Z,89.32
2022-10-25T20:22:38.060Z,89.69
2022-10-25T20:25:08.030Z,90.42
2022-10-25T20:27:36.640Z,90.78
2022-10-25T20:30:07.847Z,90.75
2022-10-25T20:32:36.294Z,90.34
2022-10-25T20:37:38.032Z,91.65
2022-10-25T20:40:07.865Z,91.22
2022-10-25T20:42:36.175Z,91.38
2022-10-25T20:45:06.493Z,91.54
2022-10-25T20:47:34.851Z,91.59
2022-10-25T20:50:03.128Z,92.31
2022-10-25T20:52:31.518Z,92.80
2022-10-25T20:54:59.813Z,92.79
2022-10-25T20:57:28.231Z,92.01
2022-10-25T20:59:56.451Z,91.92
2022-10-25T21:02:26.170Z,91.66
2022-10-25T21:04:54.689Z,92.14
2022-10-25T21:07:23.200Z,92.72
2022-10-25T21:09:51.545Z,93.25
2022-10-25T21:12:19.899Z,93.04
2022-10-25T21:14:48.160Z,92.91
2022-10-25T21:17:16.579Z,92.50
2022-10-25T21:19:46.328Z,92.76
2022-10-25T21:22:14.635Z,92.99
2022-10-25T21:24:42.916Z,93.20
2022-10-25T21:27:11.187Z,93.47
2022-10-25T21:29:39.493Z,94.28
2022-10-25T21:32:07.947Z,94.23
2022-10-25T21:34:36.348Z,94.19
2022-10-25T21:37:06.076Z,94.56
2022-10-25T21:39:34.304Z,93.91
2022-10-25T21:42:02.607Z,94.17
2022-10-25T21:44:30.837Z,94.23
2022-10-25T21:46:59.118Z,94.56
2022-10-25T21:49:27.339Z,94.37
2022-10-25T21:51:55.581Z,94.75
2022-10-25T21:54:25.383Z,94.85
2022-10-25T21:56:54.118Z,95.03
2022-10-25T21:59:23.273Z,94.85
2022-10-25T22:01:51.611Z,95.19
2022-10-25T22:04:20.042Z,95.21
2022-10-25T22:06:48.434Z,95.76
2022-10-25T22:09:16.832Z,96.03
2022-10-25T22:11:46.459Z,96.36
2022-10-25T22:14:15.910Z,96.31
2022-10-25T22:16:44.809Z,96.92
2022-10-25T22:19:17.002Z,97.11
2022-10-25T22:21:46.356Z,97.38
2022-10-25T22:24:14.765Z,97.15
2022-10-25T22:26:46.321Z,97.24
2022-10-25T22:29:15.606Z,97.54
2022-10-25T22:31:44.021Z,97.52
2022-10-25T22:34:12.583Z,98.09
2022-10-25T22:36:42.573Z,98.48
2022-10-25T22:39:11.592Z,98.37
2022-10-25T22:41:39.897Z,98.33
2022-10-25T22:44:09.695Z,98.54
2022-10-25T22:46:38.010Z,98.71
2022-10-25T22:49:08.597Z,98.11
2022-10-25T22:51:38.610Z,97.73
2022-10-25T22:54:07.591Z,98.19
2022-10-25T22:56:35.968Z,98.32
2022-10-25T22:59:07.068Z,98.03
2022-10-25T23:01:38.667Z,98.33
2022-10-25T23:04:08.955Z,98.64
2022-10-25T23:06:40.128Z,99.27
2022-10-25T23:09:11.080Z,98.86
2022-10-25T23:11:41.442Z,99.46
2022-10-25T23:14:14.755Z,99.42
2022-10-25T23:16:47.262Z,99.89
2022-10-25T23:19:15.731Z,99.90
2022-10-25T23:21:44.100Z,99.79
2022-10-25T23:24:12.334Z,99.53
2022-10-25T23:26:40.872Z,99.33
2022-10-25T23:29:11.285Z,99.73
2022-10-25T23:31:39.690Z,99.55
2022-10-25T23:34:09.809Z,99.96
2022-10-25T23:36:38.219Z,99.87
2022-10-25T23:39:09.048Z,99.01
2022-10-25T23:41:37.624Z,99.21
2022-10-25T23:44:06.113Z,98.72
2022-10-25T23:46:34.390Z,98.73
2022-10-25T23:49:02.725Z,97.99
2022-10-25T23:51:32.285Z,97.58
2022-10-25T23:54:00.635Z,97.78
2022-10-25T23:56:28.899Z,98.00
2022-10-25T23:58:57.187Z,97.90
